Terminal Aerodrome Forecast
Issued by NWS

Home | Current Version | Previous Version | Text Only | Print | Product List | Glossary Off
Versions: 1 2 3 4 5 6 7 8 9 10 11 12

000
FTUS43 KBIS 270154 AAA
TAFMOT
TAF AMD
KMOT 270154Z 2702/2724 VRB03KT P6SM BKN250
     FM270500 19007KT P6SM SCT090 BKN120
     FM271100 22009KT P6SM SCT120
     FM271500 26011KT P6SM FEW130
     FM271900 31016G23KT P6SM SKC=

USA.gov is the U.S. government's official web portal to all federal, state and local government web resources and services.